createdAt,value
2019-06-26T00:00:51.417Z,20.00
2019-06-26T00:03:24.270Z,20.00
2019-06-26T00:05:57.070Z,20.00
2019-06-26T00:08:29.754Z,19.90
2019-06-26T00:11:02.537Z,20.00
2019-06-26T00:13:35.345Z,20.00
2019-06-26T00:16:08.135Z,20.00
2019-06-26T00:18:43.204Z,20.20
2019-06-26T00:21:22.122Z,20.10
2019-06-26T00:23:56.371Z,20.00
2019-06-26T00:26:29.062Z,20.10
2019-06-26T00:29:01.822Z,20.00
2019-06-26T00:31:34.595Z,19.90
2019-06-26T00:34:09.345Z,19.90
2019-06-26T00:36:44.277Z,19.90
2019-06-26T00:39:17.022Z,19.90
2019-06-26T00:41:49.722Z,19.80
2019-06-26T00:44:22.509Z,19.90
2019-06-26T00:47:14.248Z,19.90
2019-06-26T00:49:47.148Z,19.90
2019-06-26T00:52:19.876Z,19.80
2019-06-26T00:54:52.674Z,19.90
2019-06-26T00:57:28.168Z,19.90
2019-06-26T01:00:02.715Z,19.80
2019-06-26T01:02:35.489Z,19.90
2019-06-26T01:05:09.854Z,19.90
2019-06-26T01:07:45.297Z,19.80
2019-06-26T01:10:18.198Z,19.80
2019-06-26T01:12:52.193Z,19.80
2019-06-26T01:15:26.945Z,19.80
2019-06-26T01:17:59.714Z,19.90
2019-06-26T01:20:34.509Z,19.80
2019-06-26T01:23:07.270Z,19.70
2019-06-26T01:25:40.163Z,19.70
2019-06-26T01:28:15.634Z,19.70
2019-06-26T01:30:49.093Z,19.80
2019-06-26T01:33:21.797Z,19.80
2019-06-26T01:35:54.623Z,19.80
2019-06-26T01:38:30.356Z,19.70
2019-06-26T01:41:05.314Z,19.70
2019-06-26T01:43:38.350Z,19.60
2019-06-26T01:46:11.157Z,19.70
2019-06-26T01:48:43.853Z,19.70
2019-06-26T01:51:16.851Z,19.70
2019-06-26T01:53:49.666Z,19.60
2019-06-26T01:56:22.373Z,19.50
2019-06-26T01:58:55.201Z,19.50
2019-06-26T02:01:28.070Z,19.70
2019-06-26T02:04:02.376Z,19.70
2019-06-26T02:06:35.196Z,19.60
2019-06-26T02:09:09.515Z,19.60
2019-06-26T02:11:42.621Z,19.70
2019-06-26T02:14:30.098Z,19.70
2019-06-26T02:16:49.860Z,19.60
2019-06-26T02:19:22.634Z,19.50
2019-06-26T02:21:55.591Z,19.50
2019-06-26T02:24:30.013Z,19.30
2019-06-26T02:27:03.766Z,19.40
2019-06-26T02:29:41.357Z,19.30
2019-06-26T02:32:13.917Z,19.40
2019-06-26T02:34:46.680Z,19.30
2019-06-26T02:37:19.491Z,19.30
2019-06-26T02:39:52.307Z,19.30
2019-06-26T02:42:25.046Z,19.30
2019-06-26T02:44:59.465Z,19.40
2019-06-26T02:47:32.211Z,19.40
2019-06-26T02:50:05.024Z,19.30
2019-06-26T02:52:37.849Z,19.30
2019-06-26T02:55:10.829Z,19.30
2019-06-26T02:57:46.565Z,19.20
2019-06-26T03:00:19.399Z,19.10
2019-06-26T03:02:53.721Z,19.20
2019-06-26T03:05:26.499Z,19.20
2019-06-26T03:07:59.936Z,19.10
2019-06-26T03:10:32.771Z,19.10
2019-06-26T03:13:05.583Z,19.10
2019-06-26T03:15:38.659Z,19.00
2019-06-26T03:18:12.122Z,19.10
2019-06-26T03:20:45.034Z,19.10
2019-06-26T03:23:17.835Z,19.20
2019-06-26T03:25:50.721Z,19.20
2019-06-26T03:28:23.513Z,19.10
2019-06-26T03:30:59.550Z,19.10
2019-06-26T03:33:32.410Z,19.00
2019-06-26T03:36:05.101Z,19.00
2019-06-26T03:38:38.014Z,19.00
2019-06-26T03:41:13.244Z,18.90
2019-06-26T03:43:46.245Z,18.90
2019-06-26T03:46:19.317Z,18.90
2019-06-26T03:48:52.129Z,18.90
2019-06-26T03:51:24.935Z,18.90
2019-06-26T03:53:57.665Z,19.10
2019-06-26T03:56:30.659Z,19.20
2019-06-26T03:59:03.372Z,19.10
2019-06-26T04:01:36.570Z,19.20
2019-06-26T04:04:09.404Z,19.20
2019-06-26T04:06:42.304Z,19.20
2019-06-26T04:09:15.273Z,19.20
2019-06-26T04:11:48.172Z,19.10
2019-06-26T04:14:23.895Z,19.20
2019-06-26T04:16:56.716Z,19.20
2019-06-26T04:19:29.604Z,19.20
2019-06-26T04:22:02.408Z,19.20
2019-06-26T04:24:35.213Z,19.20
2019-06-26T04:27:08.081Z,19.20
2019-06-26T04:29:40.857Z,19.20
2019-06-26T04:32:14.003Z,19.20
2019-06-26T04:34:46.726Z,19.20
2019-06-26T04:37:19.669Z,19.20
2019-06-26T04:39:52.419Z,19.20
2019-06-26T04:42:25.239Z,19.30
2019-06-26T04:44:58.575Z,19.30
2019-06-26T04:47:31.293Z,19.30
2019-06-26T04:50:04.127Z,19.40
2019-06-26T04:52:36.893Z,19.40
2019-06-26T04:55:09.678Z,19.40
2019-06-26T04:57:42.473Z,19.40
2019-06-26T05:00:15.318Z,19.40
2019-06-26T05:02:48.169Z,19.40
2019-06-26T05:05:21.387Z,19.30
2019-06-26T05:07:54.707Z,19.30
2019-06-26T05:10:27.532Z,19.30
2019-06-26T05:13:00.611Z,19.30
2019-06-26T05:15:33.427Z,19.40
2019-06-26T05:18:06.172Z,19.40
2019-06-26T05:20:38.970Z,19.50
2019-06-26T05:23:11.659Z,19.60
2019-06-26T05:25:44.389Z,19.60
2019-06-26T05:28:17.423Z,19.70
2019-06-26T05:30:57.671Z,19.80
2019-06-26T05:33:31.592Z,19.90
2019-06-26T05:36:04.388Z,20.00
2019-06-26T05:38:39.854Z,20.10
2019-06-26T05:41:14.669Z,20.10
2019-06-26T05:43:50.410Z,20.20
2019-06-26T05:46:30.958Z,20.20
2019-06-26T05:48:59.200Z,20.30
2019-06-26T05:51:31.938Z,20.30
2019-06-26T05:54:04.777Z,20.40
2019-06-26T05:56:37.537Z,20.40
2019-06-26T06:02:16.559Z,20.50
2019-06-26T06:04:50.376Z,20.60
2019-06-26T06:07:24.173Z,20.60
2019-06-26T06:09:56.898Z,20.70
2019-06-26T06:12:31.236Z,20.70
2019-06-26T06:15:03.972Z,20.70
2019-06-26T06:17:36.718Z,20.70
2019-06-26T06:20:09.582Z,20.80
2019-06-26T06:22:42.599Z,20.80
2019-06-26T06:25:15.429Z,20.90
2019-06-26T06:27:49.815Z,20.90
2019-06-26T06:30:22.665Z,21.00
2019-06-26T06:32:55.416Z,21.10
2019-06-26T06:35:28.275Z,21.30
2019-06-26T06:38:01.011Z,21.60
2019-06-26T06:40:33.884Z,22.20
2019-06-26T06:43:06.580Z,22.50
2019-06-26T06:45:39.441Z,22.70
2019-06-26T06:48:12.159Z,22.90
2019-06-26T06:50:45.013Z,23.20
2019-06-26T06:53:17.672Z,23.10
2019-06-26T06:55:50.423Z,23.50
2019-06-26T06:58:29.959Z,23.90
2019-06-26T07:00:59.181Z,24.30
2019-06-26T07:03:31.992Z,24.70
2019-06-26T07:06:04.789Z,25.50
2019-06-26T07:08:37.590Z,25.50
2019-06-26T07:11:17.481Z,24.50
2019-06-26T07:13:50.368Z,24.70
2019-06-26T07:16:23.172Z,24.50
2019-06-26T07:18:57.579Z,24.30
2019-06-26T07:21:30.519Z,24.30
2019-06-26T07:24:03.375Z,24.30
2019-06-26T07:26:36.141Z,24.10
2019-06-26T07:29:09.286Z,24.90
2019-06-26T07:31:42.881Z,26.40
2019-06-26T07:34:16.208Z,26.20
2019-06-26T07:36:48.953Z,26.50
2019-06-26T07:39:23.366Z,27.10
2019-06-26T07:41:59.364Z,27.70
2019-06-26T07:44:32.204Z,27.80
2019-06-26T07:47:12.753Z,27.70
2019-06-26T07:49:39.445Z,27.90
2019-06-26T07:52:13.145Z,27.70
2019-06-26T07:54:47.644Z,27.60
2019-06-26T07:57:20.534Z,28.30
2019-06-26T07:59:54.915Z,27.80
2019-06-26T08:02:28.304Z,28.20
2019-06-26T08:05:02.134Z,28.00
2019-06-26T08:07:35.026Z,27.00
2019-06-26T08:10:07.805Z,27.30
2019-06-26T08:12:40.642Z,27.10
2019-06-26T08:15:16.398Z,27.10
2019-06-26T08:17:59.903Z,27.20
2019-06-26T08:20:23.499Z,27.90
2019-06-26T08:22:56.303Z,28.50
2019-06-26T08:25:29.126Z,28.70
2019-06-26T08:28:01.892Z,28.60
2019-06-26T08:30:34.699Z,28.10
2019-06-26T08:33:09.076Z,28.60
2019-06-26T08:35:41.907Z,28.40
2019-06-26T08:38:15.819Z,28.90
2019-06-26T08:40:48.921Z,28.60
2019-06-26T08:43:21.607Z,28.80
2019-06-26T08:45:54.283Z,29.10
2019-06-26T08:48:38.873Z,29.10
2019-06-26T08:51:01.361Z,29.30
2019-06-26T08:53:34.307Z,28.80
2019-06-26T08:56:07.073Z,28.80
2019-06-26T08:58:40.911Z,28.70
2019-06-26T09:01:13.633Z,29.40
2019-06-26T09:03:48.668Z,29.50
2019-06-26T09:06:24.611Z,29.40
2019-06-26T09:08:57.124Z,29.80
2019-06-26T09:11:31.439Z,29.90
2019-06-26T09:14:04.209Z,29.90
2019-06-26T09:16:37.186Z,29.90
2019-06-26T09:19:11.912Z,30.00
2019-06-26T09:21:45.886Z,29.70
2019-06-26T09:24:21.365Z,29.90
2019-06-26T09:26:54.240Z,30.10
2019-06-26T09:29:28.604Z,30.40
2019-06-26T09:32:01.505Z,30.20
2019-06-26T09:34:34.249Z,30.30
2019-06-26T09:37:07.992Z,29.50
2019-06-26T09:39:41.055Z,30.00
2019-06-26T09:42:19.548Z,30.00
2019-06-26T09:44:51.466Z,30.20
2019-06-26T09:47:25.365Z,30.20
2019-06-26T09:50:01.020Z,30.30
2019-06-26T09:52:33.831Z,30.60
2019-06-26T09:55:09.425Z,30.70
2019-06-26T09:57:42.158Z,30.80
2019-06-26T10:00:16.535Z,30.90
2019-06-26T10:02:49.322Z,31.20
2019-06-26T10:05:22.126Z,31.20
2019-06-26T10:07:54.992Z,30.90
2019-06-26T10:10:29.399Z,31.00
2019-06-26T10:13:02.179Z,31.30
2019-06-26T10:15:35.033Z,31.10
2019-06-26T10:18:07.935Z,30.70
2019-06-26T10:20:44.957Z,30.90
2019-06-26T10:23:17.731Z,30.80
2019-06-26T10:25:52.059Z,31.30
2019-06-26T10:28:24.867Z,31.40
2019-06-26T10:30:57.690Z,31.50
2019-06-26T10:33:30.596Z,31.70
2019-06-26T10:36:03.417Z,31.30
2019-06-26T10:38:36.221Z,31.50
2019-06-26T10:41:08.952Z,31.70
2019-06-26T10:43:41.716Z,31.60
2019-06-26T10:46:17.555Z,31.70
2019-06-26T10:48:51.644Z,31.30
2019-06-26T10:51:24.537Z,31.60
2019-06-26T10:53:57.402Z,30.90
2019-06-26T10:56:32.904Z,31.00
2019-06-26T10:59:05.666Z,31.30
2019-06-26T11:01:38.414Z,31.40
2019-06-26T11:04:12.781Z,31.60
2019-06-26T11:06:45.750Z,31.70
2019-06-26T11:09:18.685Z,31.50
2019-06-26T11:11:51.522Z,31.80
2019-06-26T11:14:24.486Z,31.80
2019-06-26T11:16:59.880Z,31.60
2019-06-26T11:19:43.247Z,31.70
2019-06-26T11:22:09.252Z,31.50
2019-06-26T11:24:42.114Z,31.90
2019-06-26T11:27:15.026Z,31.60
2019-06-26T11:29:47.761Z,31.90
2019-06-26T11:32:20.736Z,31.90
2019-06-26T11:34:53.505Z,31.70
2019-06-26T11:37:27.505Z,31.80
2019-06-26T11:40:00.311Z,32.00
2019-06-26T11:42:33.156Z,31.90
2019-06-26T11:45:07.511Z,32.20
2019-06-26T11:47:45.377Z,32.20
2019-06-26T11:50:15.727Z,32.30
2019-06-26T11:52:48.579Z,32.50
2019-06-26T11:55:23.415Z,31.70
2019-06-26T11:57:56.164Z,31.90
2019-06-26T12:00:30.894Z,31.70
2019-06-26T12:03:05.251Z,32.00
2019-06-26T12:05:38.038Z,32.20
2019-06-26T12:08:10.830Z,32.30
2019-06-26T12:10:43.689Z,32.00
2019-06-26T12:13:16.530Z,32.20
2019-06-26T12:15:49.500Z,32.10
2019-06-26T12:18:25.532Z,31.60
2019-06-26T12:20:58.408Z,31.90
2019-06-26T12:23:31.175Z,32.00
2019-06-26T12:26:03.949Z,32.00
2019-06-26T12:28:36.744Z,32.00
2019-06-26T12:31:09.522Z,31.90
2019-06-26T12:33:42.299Z,31.80
2019-06-26T12:36:15.161Z,31.70
2019-06-26T12:38:48.344Z,32.00
2019-06-26T12:41:21.065Z,32.20
2019-06-26T12:43:53.972Z,32.30
2019-06-26T12:46:26.844Z,32.00
2019-06-26T12:48:59.599Z,32.20
2019-06-26T12:51:33.421Z,31.70
2019-06-26T12:54:06.414Z,31.60
2019-06-26T12:56:39.257Z,31.70
2019-06-26T12:59:13.690Z,31.20
2019-06-26T13:01:46.532Z,31.20
2019-06-26T13:04:21.005Z,31.20
2019-06-26T13:07:00.325Z,31.40
2019-06-26T13:09:33.145Z,31.50
2019-06-26T13:12:06.275Z,31.80
2019-06-26T13:14:39.990Z,31.50
2019-06-26T13:17:12.921Z,31.60
2019-06-26T13:19:45.656Z,31.80
2019-06-26T13:22:20.213Z,31.10
2019-06-26T13:24:53.015Z,31.10
2019-06-26T13:27:26.972Z,31.50
2019-06-26T13:29:59.789Z,31.50
2019-06-26T13:32:32.665Z,31.50
2019-06-26T13:35:05.682Z,31.40
2019-06-26T13:37:38.524Z,31.50
2019-06-26T13:40:11.272Z,31.30
2019-06-26T13:42:44.055Z,31.40
2019-06-26T13:45:16.985Z,31.70
2019-06-26T13:47:49.906Z,31.80
2019-06-26T13:50:22.806Z,31.80
2019-06-26T13:52:55.677Z,31.90
2019-06-26T13:55:28.412Z,31.70
2019-06-26T13:58:01.818Z,31.70
2019-06-26T14:00:34.775Z,31.80
2019-06-26T14:03:07.878Z,31.60
2019-06-26T14:05:42.317Z,31.70
2019-06-26T14:08:15.636Z,31.70
2019-06-26T14:10:48.716Z,31.80
2019-06-26T14:13:21.910Z,31.60
2019-06-26T14:15:54.939Z,31.60
2019-06-26T14:18:30.405Z,31.20
2019-06-26T14:21:03.351Z,30.90
2019-06-26T14:23:38.086Z,31.00
2019-06-26T14:26:12.405Z,31.30
2019-06-26T14:28:45.365Z,31.20
2019-06-26T14:31:18.488Z,31.00
2019-06-26T14:33:53.029Z,31.20
2019-06-26T14:36:25.946Z,31.30
2019-06-26T14:39:09.452Z,31.10
2019-06-26T14:41:42.296Z,31.30
2019-06-26T14:44:15.089Z,31.20
2019-06-26T14:46:49.590Z,31.00
2019-06-26T14:49:22.398Z,31.10
2019-06-26T14:51:55.414Z,31.00
2019-06-26T14:54:28.464Z,31.10
2019-06-26T14:57:20.235Z,31.30
2019-06-26T14:59:52.965Z,31.10
2019-06-26T15:02:26.142Z,31.00
2019-06-26T15:05:00.651Z,30.80
2019-06-26T15:07:35.632Z,30.70
2019-06-26T15:10:08.446Z,30.90
2019-06-26T15:12:44.317Z,30.80
2019-06-26T15:15:16.847Z,30.70
2019-06-26T15:17:49.663Z,30.40
2019-06-26T15:20:23.291Z,30.40
2019-06-26T15:22:58.726Z,30.50
2019-06-26T15:25:30.657Z,30.50
2019-06-26T15:28:03.447Z,30.10
2019-06-26T15:30:38.679Z,30.20
2019-06-26T15:33:11.621Z,30.40
2019-06-26T15:35:44.472Z,30.40
2019-06-26T15:38:20.320Z,30.40
2019-06-26T15:40:53.003Z,30.30
2019-06-26T15:43:25.845Z,30.10
2019-06-26T15:45:58.811Z,30.30
2019-06-26T15:48:31.847Z,30.30
2019-06-26T15:51:04.711Z,30.20
2019-06-26T15:53:39.425Z,30.10
2019-06-26T15:56:12.470Z,30.00
2019-06-26T15:58:47.388Z,30.10
2019-06-26T16:01:20.287Z,30.20
2019-06-26T16:03:55.898Z,30.10
2019-06-26T16:06:28.694Z,29.90
2019-06-26T16:09:01.430Z,29.90
2019-06-26T16:11:34.624Z,29.70
2019-06-26T16:14:08.924Z,29.70
2019-06-26T16:16:43.243Z,29.80
2019-06-26T16:19:20.521Z,29.80
2019-06-26T16:21:53.341Z,29.70
2019-06-26T16:24:26.131Z,29.60
2019-06-26T16:26:58.977Z,29.40
2019-06-26T16:29:32.364Z,29.30
2019-06-26T16:32:06.089Z,29.20
2019-06-26T16:34:40.868Z,29.20
2019-06-26T16:37:13.635Z,29.00
2019-06-26T16:39:48.066Z,28.90
2019-06-26T16:42:20.919Z,28.90
2019-06-26T16:44:55.349Z,28.80
2019-06-26T16:47:33.211Z,28.80
2019-06-26T16:50:06.261Z,28.70
2019-06-26T16:52:49.295Z,28.80
2019-06-26T16:55:13.835Z,28.60
2019-06-26T16:57:46.610Z,28.60
2019-06-26T17:00:19.510Z,28.60
2019-06-26T17:02:52.542Z,28.60
2019-06-26T17:05:25.345Z,28.60
2019-06-26T17:07:58.124Z,28.50
2019-06-26T17:10:32.436Z,28.50
2019-06-26T17:13:05.274Z,28.50
2019-06-26T17:15:41.045Z,28.40
2019-06-26T17:18:14.294Z,28.30
2019-06-26T17:20:48.941Z,28.10
2019-06-26T17:23:21.766Z,28.00
2019-06-26T17:25:54.639Z,27.90
2019-06-26T17:28:27.470Z,27.80
2019-06-26T17:31:03.814Z,27.90
2019-06-26T17:33:36.690Z,27.70
2019-06-26T17:36:09.566Z,27.70
2019-06-26T17:38:45.084Z,27.60
2019-06-26T17:41:17.999Z,27.60
2019-06-26T17:43:50.795Z,27.50
2019-06-26T17:46:25.239Z,27.40
2019-06-26T17:48:57.999Z,27.20
2019-06-26T17:51:32.478Z,27.10
2019-06-26T17:54:05.280Z,27.00
2019-06-26T17:56:39.633Z,26.90
2019-06-26T17:59:21.547Z,27.00
2019-06-26T18:01:53.998Z,26.90
2019-06-26T18:04:26.870Z,26.90
2019-06-26T18:07:18.680Z,26.80
2019-06-26T18:09:51.419Z,26.80
2019-06-26T18:12:24.289Z,26.70
2019-06-26T18:14:57.137Z,26.50
2019-06-26T18:17:29.974Z,26.50
2019-06-26T18:20:02.791Z,26.40
2019-06-26T18:22:35.597Z,26.20
2019-06-26T18:25:08.692Z,26.10
2019-06-26T18:27:42.101Z,25.90
2019-06-26T18:30:16.529Z,25.90
2019-06-26T18:32:49.557Z,25.70
2019-06-26T18:35:22.560Z,25.60
2019-06-26T18:37:55.326Z,25.50
2019-06-26T18:40:31.089Z,25.40
2019-06-26T18:43:03.894Z,25.30
2019-06-26T18:45:36.680Z,25.20
2019-06-26T18:48:09.595Z,25.00
2019-06-26T18:50:42.395Z,25.00
2019-06-26T18:53:15.190Z,25.10
2019-06-26T18:55:47.910Z,25.10
2019-06-26T18:58:21.410Z,25.00
2019-06-26T19:00:54.246Z,24.90
2019-06-26T19:03:27.010Z,24.80
2019-06-26T19:05:59.765Z,24.80
2019-06-26T19:08:32.707Z,24.70
2019-06-26T19:11:05.567Z,24.60
2019-06-26T19:13:38.452Z,24.60
2019-06-26T19:16:11.165Z,24.50
2019-06-26T19:18:46.259Z,24.40
2019-06-26T19:21:19.104Z,24.40
2019-06-26T19:23:52.304Z,24.30
2019-06-26T19:26:25.105Z,24.30
2019-06-26T19:28:58.009Z,24.20
2019-06-26T19:31:30.846Z,24.10
2019-06-26T19:34:03.776Z,24.10
2019-06-26T19:36:49.641Z,24.10
2019-06-26T19:39:12.659Z,24.00
2019-06-26T19:41:45.422Z,24.00
2019-06-26T19:44:18.229Z,23.90
2019-06-26T19:46:51.994Z,23.90
2019-06-26T19:49:24.707Z,24.00
2019-06-26T19:51:57.697Z,23.90
2019-06-26T19:54:33.257Z,23.90
2019-06-26T19:57:07.249Z,23.90
2019-06-26T19:59:40.094Z,23.90
2019-06-26T20:02:12.935Z,23.80
2019-06-26T20:04:48.254Z,23.80
2019-06-26T20:07:20.120Z,23.70
2019-06-26T20:09:52.925Z,23.70
2019-06-26T20:12:25.674Z,23.60
2019-06-26T20:14:58.544Z,23.60
2019-06-26T20:17:31.343Z,23.60
2019-06-26T20:20:04.194Z,23.60
2019-06-26T20:22:36.899Z,23.60
2019-06-26T20:25:09.720Z,23.50
2019-06-26T20:27:42.529Z,23.50
2019-06-26T20:30:15.292Z,23.40
2019-06-26T20:32:48.073Z,23.40
2019-06-26T20:35:20.884Z,23.40
2019-06-26T20:37:53.664Z,23.40
2019-06-26T20:40:26.483Z,23.40
2019-06-26T20:42:59.233Z,23.30
2019-06-26T20:45:33.624Z,23.40
2019-06-26T20:48:06.350Z,23.30
2019-06-26T20:50:39.198Z,23.30
2019-06-26T20:53:12.068Z,23.30
2019-06-26T20:55:44.962Z,23.30
2019-06-26T20:58:17.815Z,23.30
2019-06-26T21:00:50.600Z,23.20
2019-06-26T21:03:23.593Z,23.20
2019-06-26T21:05:56.473Z,23.10
2019-06-26T21:08:30.889Z,23.00
2019-06-26T21:11:03.665Z,23.10
2019-06-26T21:13:36.471Z,23.00
2019-06-26T21:16:09.333Z,23.00
2019-06-26T21:18:42.284Z,23.00
2019-06-26T21:21:15.249Z,23.00
2019-06-26T21:23:48.034Z,23.00
2019-06-26T21:26:23.657Z,23.00
2019-06-26T21:28:56.459Z,23.00
2019-06-26T21:31:29.325Z,22.90
2019-06-26T21:34:02.249Z,22.80
2019-06-26T21:36:35.096Z,22.80
2019-06-26T21:39:07.840Z,22.80
2019-06-26T21:41:40.735Z,22.80
2019-06-26T21:44:13.459Z,22.80
2019-06-26T21:46:46.339Z,22.70
2019-06-26T21:49:19.216Z,22.70
2019-06-26T21:51:51.950Z,22.70
2019-06-26T21:54:24.804Z,22.60
2019-06-26T21:56:57.564Z,22.60
2019-06-26T21:59:31.915Z,22.50
2019-06-26T22:02:04.756Z,22.50
2019-06-26T22:04:37.653Z,22.50
2019-06-26T22:07:10.469Z,22.40
2019-06-26T22:09:45.869Z,22.40
2019-06-26T22:12:18.872Z,22.40
2019-06-26T22:14:51.914Z,22.40
2019-06-26T22:17:24.730Z,22.50
2019-06-26T22:19:57.651Z,22.40
2019-06-26T22:22:33.619Z,22.40
2019-06-26T22:25:07.241Z,22.40
2019-06-26T22:27:40.087Z,22.40
2019-06-26T22:30:12.788Z,22.30
2019-06-26T22:32:48.769Z,22.30
2019-06-26T22:35:21.579Z,22.30
2019-06-26T22:37:54.581Z,22.30
2019-06-26T22:40:27.432Z,22.30
2019-06-26T22:43:00.185Z,22.10
2019-06-26T22:45:33.064Z,22.10
2019-06-26T22:48:14.095Z,22.10
2019-06-26T22:50:51.359Z,22.00
2019-06-26T22:53:24.221Z,22.00
2019-06-26T22:56:07.450Z,22.00
2019-06-26T22:58:35.680Z,22.10
2019-06-26T23:01:12.604Z,22.20
2019-06-26T23:03:47.599Z,22.20
2019-06-26T23:06:22.086Z,22.10
2019-06-26T23:09:01.001Z,22.10
2019-06-26T23:11:35.370Z,22.10
2019-06-26T23:14:11.980Z,22.10
2019-06-26T23:16:46.350Z,22.00
2019-06-26T23:19:22.780Z,22.00
2019-06-26T23:21:57.465Z,22.00
2019-06-26T23:24:41.102Z,22.00
2019-06-26T23:27:17.711Z,22.00
2019-06-26T23:29:50.465Z,22.10
2019-06-26T23:32:23.194Z,22.20
2019-06-26T23:34:58.286Z,22.20
2019-06-26T23:37:36.451Z,22.20
2019-06-26T23:40:15.869Z,22.20
2019-06-26T23:42:48.576Z,22.20
2019-06-26T23:45:24.353Z,22.20
2019-06-26T23:47:57.050Z,22.30
2019-06-26T23:50:31.512Z,22.10
2019-06-26T23:53:05.450Z,22.10
2019-06-26T23:55:38.147Z,22.10
2019-06-26T23:58:16.594Z,22.10
